Time;durP1;ratioP1;P1;durP2;ratioP2;P2;SDS_P1;SDS_P2;PMS_P1;PMS_P2;Temp;Humidity;BMP_temperature;BMP_pressure;BME280_temperature;BME280_humidity;BME280_pressure;Samples;Min_cycle;Max_cycle;Signal;HPM_P1;HPM_P2
2024/01/01 00:00:12;;;;;;;10.30;8.60;;;10.50;99.90;;;;;;4868738;29;20470;-69
2024/01/01 00:02:38;;;;;;;10.67;9.77;;;10.40;99.90;;;;;;4887764;29;20919;-68
2024/01/01 00:05:05;;;;;;;13.53;10.10;;;10.50;99.90;;;;;;4888284;29;20428;-66
2024/01/01 00:07:30;;;;;;;13.30;9.30;;;10.60;99.90;;;;;;4891728;29;20442;-66
2024/01/01 00:09:56;;;;;;;8.17;7.40;;;10.50;99.90;;;;;;4897047;29;20437;-69
2024/01/01 00:12:22;;;;;;;10.30;8.27;;;10.50;99.90;;;;;;4906554;29;20447;-68
2024/01/01 00:14:48;;;;;;;8.10;7.30;;;10.50;99.90;;;;;;4901467;29;20549;-70
2024/01/01 00:17:13;;;;;;;9.50;8.03;;;10.50;99.90;;;;;;4895770;29;20187;-67
2024/01/01 00:19:42;;;;;;;11.97;8.67;;;10.50;99.90;;;;;;4905862;29;20246;-73
2024/01/01 00:22:08;;;;;;;9.20;8.20;;;10.60;99.90;;;;;;4909766;29;20190;-66
2024/01/01 00:24:34;;;;;;;11.93;8.73;;;10.50;99.90;;;;;;4894410;29;20420;-71
2024/01/01 00:27:00;;;;;;;11.57;8.63;;;10.50;99.90;;;;;;4902687;29;20197;-63
2024/01/01 00:29:25;;;;;;;13.63;11.00;;;10.60;99.90;;;;;;4908408;29;20180;-69
2024/01/01 00:31:52;;;;;;;17.97;14.43;;;10.60;99.90;;;;;;4901818;29;20664;-67
2024/01/01 00:34:18;;;;;;;11.30;9.87;;;10.80;99.90;;;;;;4887175;29;20189;-67
2024/01/01 00:36:43;;;;;;;11.83;9.47;;;10.60;99.90;;;;;;4905241;29;20915;-69
2024/01/01 00:39:09;;;;;;;13.83;9.50;;;10.70;99.90;;;;;;4904432;29;20513;-69
2024/01/01 00:41:38;;;;;;;10.43;8.30;;;10.70;99.90;;;;;;4892923;29;20254;-69
2024/01/01 00:44:04;;;;;;;13.80;10.50;;;10.70;99.90;;;;;;4900826;29;20186;-68
2024/01/01 00:46:30;;;;;;;9.43;8.43;;;10.80;99.90;;;;;;4888177;29;20430;-69
2024/01/01 00:48:56;;;;;;;11.50;9.33;;;10.80;99.90;;;;;;4896416;29;20414;-69
2024/01/01 00:51:22;;;;;;;10.60;8.73;;;10.70;99.90;;;;;;4902048;29;20481;-66
2024/01/01 00:53:48;;;;;;;10.67;9.50;;;10.60;99.90;;;;;;4895609;29;20427;-68
2024/01/01 00:56:13;;;;;;;12.23;9.97;;;10.60;99.90;;;;;;4870782;29;20590;-67
2024/01/01 00:58:40;;;;;;;14.30;10.70;;;10.70;99.90;;;;;;4880794;29;20195;-68
2024/01/01 01:01:07;;;;;;;476.30;277.30;;;10.70;99.90;;;;;;4895070;29;20446;-69
2024/01/01 01:03:34;;;;;;;20.93;13.63;;;10.70;99.90;;;;;;4881151;29;20488;-69
2024/01/01 01:06:00;;;;;;;11.70;9.67;;;10.70;99.90;;;;;;4897300;29;20428;-64
2024/01/01 01:08:26;;;;;;;16.70;12.60;;;10.70;99.90;;;;;;4889957;29;20440;-62
2024/01/01 01:10:53;;;;;;;14.37;11.00;;;10.60;99.90;;;;;;4884762;29;20459;-69
2024/01/01 01:13:19;;;;;;;14.23;11.57;;;10.60;99.90;;;;;;4905103;29;20863;-67
2024/01/01 01:15:45;;;;;;;15.77;11.80;;;10.60;99.90;;;;;;4882803;29;20512;-74
2024/01/01 01:18:10;;;;;;;13.93;11.23;;;10.60;99.90;;;;;;4892308;29;20193;-64
2024/01/01 01:20:36;;;;;;;21.47;12.23;;;10.50;99.90;;;;;;4894108;29;20190;-64
2024/01/01 01:23:02;;;;;;;13.60;11.30;;;10.60;99.90;;;;;;4888294;29;20698;-62
2024/01/01 01:25:28;;;;;;;19.37;13.43;;;10.60;99.90;;;;;;4892979;29;20235;-71
2024/01/01 01:27:54;;;;;;;15.30;12.07;;;10.60;99.90;;;;;;4894916;29;20469;-69
2024/01/01 01:30:19;;;;;;;15.97;11.67;;;10.60;99.90;;;;;;4868768;29;20412;-66
2024/01/01 01:32:45;;;;;;;16.50;12.07;;;10.60;99.90;;;;;;4891638;29;20183;-70
2024/01/01 01:35:11;;;;;;;19.63;12.77;;;10.70;99.90;;;;;;4891032;29;20186;-68
2024/01/01 01:37:37;;;;;;;15.03;10.53;;;10.60;99.90;;;;;;4890714;29;20592;-69
2024/01/01 01:40:03;;;;;;;16.50;11.43;;;10.70;99.90;;;;;;4896602;29;20914;-62
2024/01/01 01:42:29;;;;;;;12.50;11.20;;;10.50;99.90;;;;;;4894384;29;20183;-70
2024/01/01 01:44:55;;;;;;;15.00;11.73;;;10.50;99.90;;;;;;4873113;29;20438;-69
2024/01/01 01:47:23;;;;;;;14.60;9.90;;;10.50;99.90;;;;;;4896828;29;20406;-69
2024/01/01 01:49:50;;;;;;;12.23;9.67;;;10.40;99.90;;;;;;4872983;29;20433;-70
2024/01/01 01:52:16;;;;;;;10.93;9.00;;;10.30;99.90;;;;;;4889000;29;20468;-69
2024/01/01 01:54:45;;;;;;;11.73;9.03;;;10.30;99.90;;;;;;4882370;29;20465;-69
2024/01/01 01:57:14;;;;;;;10.27;7.93;;;10.30;99.90;;;;;;4886019;29;20525;-69
2024/01/01 01:59:43;;;;;;;9.70;7.53;;;10.30;99.90;;;;;;4890087;29;20781;-69
2024/01/01 02:02:12;;;;;;;8.00;6.70;;;10.30;99.90;;;;;;4895276;29;20433;-69
2024/01/01 02:04:38;;;;;;;10.77;7.13;;;10.30;99.90;;;;;;4894822;29;20446;-69
2024/01/01 02:07:05;;;;;;;10.20;7.07;;;10.30;99.90;;;;;;4893603;29;20423;-62
2024/01/01 02:09:31;;;;;;;10.90;6.10;;;10.30;99.90;;;;;;4891429;29;20457;-69
2024/01/01 02:11:57;;;;;;;12.13;5.60;;;10.30;99.90;;;;;;4906836;29;20843;-69
2024/01/01 02:14:26;;;;;;;6.80;5.77;;;10.40;99.90;;;;;;4879407;29;20506;-69
2024/01/01 02:16:52;;;;;;;7.27;5.53;;;10.40;99.90;;;;;;4888655;29;20424;-66
2024/01/01 02:19:22;;;;;;;4.90;4.33;;;10.40;99.90;;;;;;4880276;29;20507;-69
2024/01/01 02:21:53;;;;;;;10.50;4.50;;;10.40;99.90;;;;;;4895680;29;20194;-68
2024/01/01 02:24:19;;;;;;;6.53;4.90;;;10.50;99.90;;;;;;4903149;29;20494;-68
2024/01/01 02:26:45;;;;;;;9.27;5.10;;;10.50;99.90;;;;;;4906136;29;20425;-69
2024/01/01 02:29:12;;;;;;;8.00;3.87;;;10.40;99.90;;;;;;4902762;29;20429;-69
2024/01/01 02:31:38;;;;;;;7.90;4.53;;;10.40;99.90;;;;;;4901299;29;20474;-68
2024/01/01 02:34:04;;;;;;;7.53;3.63;;;10.30;99.90;;;;;;4901384;29;20935;-66
2024/01/01 02:36:36;;;;;;;4.00;3.60;;;10.30;99.90;;;;;;4903745;29;20177;-68
2024/01/01 02:39:02;;;;;;;3.90;3.47;;;10.30;99.90;;;;;;4903899;29;20430;-66
2024/01/01 02:41:28;;;;;;;4.17;3.10;;;10.30;99.90;;;;;;4895780;29;21365;-68
2024/01/01 02:43:54;;;;;;;5.60;3.77;;;10.40;99.90;;;;;;4904709;29;20414;-70
2024/01/01 02:46:20;;;;;;;4.53;3.10;;;10.30;99.90;;;;;;4891021;29;20999;-68
2024/01/01 02:48:45;;;;;;;5.83;3.70;;;10.20;99.90;;;;;;4899950;29;20179;-69
2024/01/01 02:51:11;;;;;;;3.50;3.20;;;10.20;99.90;;;;;;4889723;29;20237;-68
2024/01/01 02:53:37;;;;;;;6.40;3.93;;;10.10;99.90;;;;;;4884420;29;20184;-68
2024/01/01 02:56:03;;;;;;;4.73;2.97;;;10.10;99.90;;;;;;4877160;29;20225;-68
2024/01/01 02:58:28;;;;;;;5.97;2.93;;;10.10;99.90;;;;;;4871034;29;20191;-69
2024/01/01 03:00:54;;;;;;;4.80;3.27;;;10.10;99.90;;;;;;4886427;29;21161;-67
2024/01/01 03:03:20;;;;;;;3.70;2.83;;;10.10;99.90;;;;;;4890915;29;20210;-67
2024/01/01 03:05:46;;;;;;;4.40;3.20;;;10.20;99.90;;;;;;4893120;29;20200;-67
2024/01/01 03:08:12;;;;;;;4.20;3.00;;;10.20;99.90;;;;;;4883186;29;20423;-68
2024/01/01 03:10:37;;;;;;;5.10;3.50;;;10.20;99.90;;;;;;4903185;29;20214;-69
2024/01/01 03:13:03;;;;;;;6.53;3.30;;;10.10;99.90;;;;;;4905407;29;20412;-68
2024/01/01 03:15:29;;;;;;;7.00;3.60;;;10.20;99.90;;;;;;4904221;29;20813;-69
2024/01/01 03:17:55;;;;;;;4.70;3.60;;;10.20;99.90;;;;;;4905960;29;20430;-69
2024/01/01 03:20:22;;;;;;;3.00;2.77;;;10.10;99.90;;;;;;4899382;29;20218;-68
2024/01/01 03:22:48;;;;;;;3.10;2.70;;;10.10;99.90;;;;;;4906027;29;20181;-68
2024/01/01 03:25:14;;;;;;;3.17;2.87;;;10.00;99.90;;;;;;4904766;29;20449;-69
2024/01/01 03:27:40;;;;;;;4.87;2.90;;;9.80;99.90;;;;;;4903002;29;20435;-69
2024/01/01 03:30:06;;;;;;;2.63;2.43;;;9.60;99.90;;;;;;4881787;29;20195;-68
2024/01/01 03:32:33;;;;;;;3.33;3.03;;;9.70;99.90;;;;;;4902722;29;20224;-68
2024/01/01 03:34:59;;;;;;;3.23;2.70;;;9.80;99.90;;;;;;4884595;29;20837;-68
2024/01/01 03:37:25;;;;;;;3.10;2.67;;;9.60;99.90;;;;;;4884878;29;20465;-67
2024/01/01 03:39:51;;;;;;;4.20;3.03;;;9.60;99.90;;;;;;4885164;29;20284;-69
2024/01/01 03:42:16;;;;;;;3.30;3.00;;;9.60;99.90;;;;;;4878998;29;20763;-68
2024/01/01 03:44:42;;;;;;;2.77;2.57;;;9.60;99.90;;;;;;4885420;29;20186;-68
2024/01/01 03:47:08;;;;;;;4.90;2.70;;;9.60;99.90;;;;;;4898325;29;20263;-63
2024/01/01 03:49:34;;;;;;;3.10;2.80;;;9.60;99.90;;;;;;4908428;29;20705;-68
2024/01/01 03:52:00;;;;;;;3.90;2.60;;;9.60;99.90;;;;;;4885946;29;20599;-69
2024/01/01 03:54:25;;;;;;;5.30;3.00;;;9.70;99.90;;;;;;4895072;29;20425;-68
2024/01/01 03:56:51;;;;;;;3.17;2.53;;;9.60;99.90;;;;;;4898272;29;20791;-69
2024/01/01 03:59:17;;;;;;;4.33;2.80;;;9.60;99.90;;;;;;4904857;29;20187;-68
2024/01/01 04:01:43;;;;;;;4.93;3.23;;;9.50;99.90;;;;;;4907702;29;20187;-69
2024/01/01 04:04:09;;;;;;;4.43;2.73;;;9.50;99.90;;;;;;4905855;29;20173;-62
2024/01/01 04:06:35;;;;;;;5.47;3.10;;;9.60;99.90;;;;;;4911586;29;20212;-69
2024/01/01 04:09:02;;;;;;;3.70;2.83;;;9.60;99.90;;;;;;4908011;29;20419;-69
2024/01/01 04:11:28;;;;;;;7.43;4.77;;;9.60;99.90;;;;;;4908658;29;20463;-68
2024/01/01 04:13:54;;;;;;;6.27;3.20;;;9.60;99.90;;;;;;4909642;29;20742;-68
2024/01/01 04:16:19;;;;;;;6.23;3.43;;;9.60;99.90;;;;;;4890327;29;20858;-68
2024/01/01 04:18:45;;;;;;;5.73;2.80;;;9.60;99.90;;;;;;4884810;29;20190;-68
2024/01/01 04:21:11;;;;;;;6.73;2.63;;;9.50;99.90;;;;;;4890271;29;20194;-61
2024/01/01 04:23:37;;;;;;;3.90;2.87;;;9.60;99.90;;;;;;4883505;29;20273;-69
2024/01/01 04:26:03;;;;;;;6.33;3.10;;;9.60;99.90;;;;;;4900219;29;20675;-69
2024/01/01 04:28:28;;;;;;;4.50;3.20;;;9.60;99.90;;;;;;4890628;29;20651;-68
2024/01/01 04:30:54;;;;;;;9.13;3.43;;;9.70;99.90;;;;;;4885767;29;20673;-68
2024/01/01 04:33:20;;;;;;;6.87;3.13;;;9.80;99.90;;;;;;4893972;29;20553;-66
2024/01/01 04:35:46;;;;;;;4.47;3.27;;;9.80;99.90;;;;;;4889850;29;20197;-68
2024/01/01 04:38:12;;;;;;;4.77;3.17;;;9.90;99.90;;;;;;4893192;29;20462;-61
2024/01/01 04:40:39;;;;;;;4.90;2.87;;;9.90;99.90;;;;;;4889128;29;20434;-68
2024/01/01 04:43:04;;;;;;;5.43;2.83;;;9.80;99.90;;;;;;4887917;29;20430;-68
2024/01/01 04:45:35;;;;;;;4.33;2.67;;;9.80;99.90;;;;;;4882736;29;20428;-68
2024/01/01 04:48:05;;;;;;;4.37;2.70;;;9.80;99.90;;;;;;4899791;29;20588;-69
2024/01/01 04:50:34;;;;;;;6.27;3.10;;;9.80;99.90;;;;;;4881854;29;21288;-68
2024/01/01 04:53:00;;;;;;;4.53;3.03;;;9.70;99.90;;;;;;4865127;29;20835;-68
2024/01/01 04:55:25;;;;;;;6.93;3.00;;;9.80;99.90;;;;;;4884830;29;20555;-67
2024/01/01 04:57:51;;;;;;;5.73;2.90;;;9.80;99.90;;;;;;4897304;29;20527;-68
2024/01/01 05:00:17;;;;;;;7.43;3.57;;;9.90;99.90;;;;;;4898138;29;20651;-67
2024/01/01 05:02:43;;;;;;;6.47;3.43;;;10.00;99.90;;;;;;4891126;29;20606;-68
2024/01/01 05:05:08;;;;;;;7.13;3.50;;;9.90;99.90;;;;;;4874216;29;20180;-68
2024/01/01 05:07:37;;;;;;;5.90;2.90;;;10.00;99.90;;;;;;4890294;29;20689;-65
2024/01/01 05:10:04;;;;;;;6.33;3.70;;;9.90;99.90;;;;;;4883254;29;20230;-68
2024/01/01 05:12:30;;;;;;;8.70;3.20;;;9.90;99.90;;;;;;4891234;29;20473;-68
2024/01/01 05:14:55;;;;;;;4.93;3.60;;;9.70;99.90;;;;;;4889770;29;20958;-66
2024/01/01 05:17:21;;;;;;;5.30;3.13;;;9.80;99.90;;;;;;4884814;29;20515;-67
2024/01/01 05:19:50;;;;;;;8.20;4.40;;;9.80;99.90;;;;;;4877401;29;20225;-68
2024/01/01 05:22:16;;;;;;;4.53;3.23;;;9.80;99.90;;;;;;4880824;29;20283;-61
2024/01/01 05:24:41;;;;;;;6.17;3.60;;;9.80;99.90;;;;;;4891414;29;20864;-68
2024/01/01 05:27:08;;;;;;;8.00;2.90;;;9.70;99.90;;;;;;4898818;29;20918;-68
2024/01/01 05:29:34;;;;;;;6.90;3.73;;;9.70;99.90;;;;;;4893640;29;20583;-68
2024/01/01 05:32:00;;;;;;;9.63;3.50;;;9.80;99.90;;;;;;4881080;29;21029;-68
2024/01/01 05:34:27;;;;;;;7.10;3.60;;;9.80;99.90;;;;;;4882669;29;20411;-67
2024/01/01 05:36:53;;;;;;;9.00;3.77;;;9.80;99.90;;;;;;4883969;29;20435;-68
2024/01/01 05:39:18;;;;;;;6.20;3.57;;;9.90;99.90;;;;;;4880635;29;20425;-69
2024/01/01 05:41:44;;;;;;;5.00;3.10;;;9.80;99.90;;;;;;4898799;29;20474;-68
2024/01/01 05:44:10;;;;;;;5.40;3.10;;;9.80;99.90;;;;;;4898036;29;20231;-68
2024/01/01 05:46:36;;;;;;;4.53;2.93;;;9.80;99.90;;;;;;4897325;29;20179;-68
2024/01/01 05:49:01;;;;;;;6.50;2.77;;;9.80;99.90;;;;;;4896237;29;20193;-67
2024/01/01 05:51:27;;;;;;;3.30;2.53;;;9.90;99.90;;;;;;4888302;29;20306;-68
2024/01/01 05:53:57;;;;;;;5.70;3.10;;;9.90;99.90;;;;;;4889767;29;20176;-68
2024/01/01 05:56:26;;;;;;;8.67;2.70;;;9.90;99.90;;;;;;4897692;29;20234;-67
2024/01/01 05:58:52;;;;;;;7.60;3.60;;;10.00;99.90;;;;;;4897152;29;20517;-68
2024/01/01 06:01:17;;;;;;;7.10;2.80;;;10.10;99.90;;;;;;4892550;29;20956;-62
2024/01/01 06:03:44;;;;;;;6.60;3.07;;;10.00;99.90;;;;;;4885680;29;20191;-70
2024/01/01 06:06:10;;;;;;;5.20;2.90;;;10.00;99.90;;;;;;4880177;29;20182;-69
2024/01/01 06:08:36;;;;;;;8.37;3.00;;;10.00;99.90;;;;;;4878160;29;20683;-70
2024/01/01 06:11:01;;;;;;;7.80;3.47;;;10.00;99.90;;;;;;4880949;29;20212;-69
2024/01/01 06:13:27;;;;;;;6.37;4.40;;;10.10;99.90;;;;;;4880053;29;20199;-70
2024/01/01 06:15:53;;;;;;;7.20;3.30;;;10.10;99.90;;;;;;4881754;29;20529;-67
2024/01/01 06:18:19;;;;;;;9.67;3.77;;;10.10;99.90;;;;;;4889357;29;20192;-68
2024/01/01 06:20:45;;;;;;;11.67;3.53;;;10.20;99.90;;;;;;4896270;29;20194;-68
2024/01/01 06:23:11;;;;;;;8.43;3.30;;;10.20;99.90;;;;;;4888753;29;20174;-69
2024/01/01 06:25:36;;;;;;;7.37;3.00;;;10.30;99.90;;;;;;4879811;29;20458;-68
2024/01/01 06:28:02;;;;;;;9.97;3.63;;;10.30;99.90;;;;;;4886012;29;20198;-68
2024/01/01 06:30:30;;;;;;;8.43;3.40;;;10.30;99.90;;;;;;4882926;29;20287;-68
2024/01/01 06:32:56;;;;;;;6.00;3.60;;;10.30;99.90;;;;;;4879771;29;20775;-69
2024/01/01 06:35:22;;;;;;;5.07;3.07;;;10.30;99.90;;;;;;4883050;29;20484;-69
2024/01/01 06:37:48;;;;;;;4.50;3.07;;;10.30;99.90;;;;;;4867174;29;20841;-68
2024/01/01 06:40:13;;;;;;;9.00;3.67;;;10.30;99.90;;;;;;4889479;29;20221;-68
2024/01/01 06:42:39;;;;;;;4.73;3.70;;;10.30;99.90;;;;;;4886495;29;20251;-69
2024/01/01 06:45:09;;;;;;;5.90;3.60;;;10.30;99.90;;;;;;4891776;29;20589;-65
2024/01/01 06:47:35;;;;;;;4.07;3.00;;;10.30;99.90;;;;;;4893132;29;20315;-65
2024/01/01 06:50:01;;;;;;;5.57;3.20;;;10.30;99.90;;;;;;4881768;29;20499;-65
2024/01/01 06:52:27;;;;;;;5.03;2.70;;;10.40;99.90;;;;;;4878388;29;20681;-65
2024/01/01 06:54:52;;;;;;;9.00;3.70;;;10.40;99.90;;;;;;4879872;29;20472;-65
2024/01/01 06:57:18;;;;;;;5.20;3.30;;;10.40;99.90;;;;;;4885239;29;20195;-61
2024/01/01 06:59:44;;;;;;;8.47;3.70;;;10.50;99.90;;;;;;4887818;29;20276;-65
2024/01/01 07:02:10;;;;;;;8.30;3.43;;;10.50;99.90;;;;;;4894783;29;20446;-65
2024/01/01 07:04:36;;;;;;;5.50;3.40;;;10.40;99.90;;;;;;4891430;29;20455;-66
2024/01/01 07:07:03;;;;;;;4.50;3.20;;;10.40;99.90;;;;;;4887081;29;20951;-65
2024/01/01 07:09:28;;;;;;;4.43;3.43;;;10.40;99.90;;;;;;4895513;29;20202;-65
2024/01/01 07:11:57;;;;;;;5.67;2.90;;;10.40;99.90;;;;;;4881550;29;20505;-65
2024/01/01 07:14:23;;;;;;;7.37;3.60;;;10.50;99.90;;;;;;4878299;29;20414;-64
2024/01/01 07:16:53;;;;;;;5.73;4.13;;;10.50;99.90;;;;;;4888580;29;20420;-65
2024/01/01 07:19:19;;;;;;;4.27;2.83;;;10.40;99.90;;;;;;4891623;29;20432;-65
2024/01/01 07:21:46;;;;;;;4.60;2.83;;;10.40;99.90;;;;;;4890231;29;20428;-64
2024/01/01 07:24:12;;;;;;;4.20;3.00;;;10.40;99.90;;;;;;4879742;29;20506;-64
2024/01/01 07:26:38;;;;;;;3.67;3.00;;;10.40;99.90;;;;;;4884528;29;20460;-63
2024/01/01 07:29:05;;;;;;;6.23;3.17;;;10.30;99.90;;;;;;4871288;29;20270;-65
2024/01/01 07:31:31;;;;;;;7.10;3.63;;;10.30;99.90;;;;;;4895240;29;20210;-64
2024/01/01 07:33:57;;;;;;;6.37;3.20;;;10.20;99.90;;;;;;4897154;29;20426;-64
2024/01/01 07:36:22;;;;;;;8.57;3.50;;;10.20;99.90;;;;;;4868373;29;20630;-64
2024/01/01 07:38:48;;;;;;;5.47;3.63;;;10.20;99.90;;;;;;4887526;29;20261;-65
2024/01/01 07:41:14;;;;;;;5.80;2.97;;;10.10;99.90;;;;;;4894717;29;20290;-64
2024/01/01 07:43:39;;;;;;;9.67;4.20;;;10.00;99.90;;;;;;4884861;29;20213;-64
2024/01/01 07:46:09;;;;;;;6.60;3.90;;;10.00;99.90;;;;;;4886368;29;20213;-65
2024/01/01 07:48:35;;;;;;;6.47;2.90;;;10.10;99.90;;;;;;4889174;29;20185;-62
2024/01/01 07:51:01;;;;;;;3.60;3.03;;;10.10;99.90;;;;;;4896437;29;21002;-65
2024/01/01 07:53:26;;;;;;;5.00;3.10;;;10.00;99.90;;;;;;4894827;29;20203;-63
2024/01/01 07:55:52;;;;;;;6.20;4.13;;;10.10;99.90;;;;;;4892142;29;20245;-67
2024/01/01 07:58:18;;;;;;;4.07;3.40;;;10.10;99.90;;;;;;4883854;29;20669;-65
2024/01/01 08:00:43;;;;;;;4.97;3.27;;;10.10;99.90;;;;;;4884750;29;20282;-65
2024/01/01 08:03:09;;;;;;;3.87;2.80;;;10.00;99.90;;;;;;4893482;29;20203;-65
2024/01/01 08:05:35;;;;;;;3.67;3.20;;;9.90;99.90;;;;;;4895808;29;20190;-65
2024/01/01 08:08:00;;;;;;;4.50;3.03;;;9.90;99.90;;;;;;4894791;29;20233;-65
2024/01/01 08:10:26;;;;;;;9.30;3.00;;;10.00;99.90;;;;;;4894000;29;20196;-64
2024/01/01 08:12:52;;;;;;;3.90;3.60;;;9.90;99.90;;;;;;4897151;29;20185;-65
2024/01/01 08:15:18;;;;;;;6.20;3.50;;;9.90;99.90;;;;;;4897163;29;20678;-65
2024/01/01 08:17:43;;;;;;;4.53;3.57;;;9.80;99.90;;;;;;4896253;29;20193;-65
2024/01/01 08:20:10;;;;;;;4.67;3.03;;;9.80;99.90;;;;;;4897028;29;20263;-65
2024/01/01 08:22:36;;;;;;;7.30;3.63;;;9.80;99.90;;;;;;4896270;29;20187;-65
2024/01/01 08:25:01;;;;;;;6.17;3.80;;;9.80;99.90;;;;;;4897090;29;20433;-65
2024/01/01 08:27:27;;;;;;;5.17;3.07;;;9.80;99.90;;;;;;4896475;29;20189;-64
2024/01/01 08:29:53;;;;;;;8.37;3.40;;;9.90;99.90;;;;;;4897305;29;20192;-65
2024/01/01 08:32:19;;;;;;;3.23;3.03;;;9.90;99.90;;;;;;4900442;29;20242;-65
2024/01/01 08:34:44;;;;;;;4.07;3.60;;;9.90;99.90;;;;;;4899356;29;20580;-65
2024/01/01 08:37:10;;;;;;;5.80;3.60;;;9.90;99.90;;;;;;4900210;29;20560;-65
2024/01/01 08:39:36;;;;;;;8.57;3.73;;;9.90;99.90;;;;;;4898672;29;20235;-65
2024/01/01 08:42:02;;;;;;;5.10;3.90;;;10.00;99.90;;;;;;4900264;29;20265;-65
2024/01/01 08:44:29;;;;;;;6.07;3.83;;;10.00;99.90;;;;;;4899615;29;20739;-64
2024/01/01 08:46:54;;;;;;;3.43;2.90;;;9.90;99.90;;;;;;4900185;29;20426;-65
2024/01/01 08:49:21;;;;;;;4.77;3.63;;;9.90;99.90;;;;;;4900084;29;20791;-64
2024/01/01 08:51:47;;;;;;;3.23;2.90;;;9.80;99.90;;;;;;4899452;29;20210;-64
2024/01/01 08:54:16;;;;;;;7.03;4.83;;;9.80;99.90;;;;;;4899716;29;20431;-65
2024/01/01 08:56:43;;;;;;;3.47;3.17;;;9.80;99.90;;;;;;4899223;29;20193;-65
2024/01/01 08:59:11;;;;;;;2.73;2.53;;;9.80;99.90;;;;;;4899995;29;20516;-66
2024/01/01 09:01:37;;;;;;;4.57;2.87;;;9.70;99.90;;;;;;4882493;29;20424;-64
2024/01/01 09:04:04;;;;;;;3.27;2.97;;;9.70;99.90;;;;;;4899682;29;20817;-65
2024/01/01 09:06:30;;;;;;;3.53;3.20;;;9.70;99.90;;;;;;4882884;29;20179;-64
2024/01/01 09:08:57;;;;;;;5.90;3.40;;;9.80;99.90;;;;;;4898856;29;20506;-64
2024/01/01 09:11:23;;;;;;;3.03;2.73;;;9.80;99.90;;;;;;4898898;29;20466;-65
2024/01/01 09:13:49;;;;;;;2.80;2.70;;;9.90;99.90;;;;;;4887460;29;20426;-65
2024/01/01 09:16:14;;;;;;;3.77;3.50;;;9.90;99.90;;;;;;4889641;29;20715;-70
2024/01/01 09:18:40;;;;;;;7.20;3.20;;;9.90;99.90;;;;;;4896906;29;20263;-68
2024/01/01 09:21:13;;;;;;;3.33;3.03;;;9.90;99.90;;;;;;4887592;29;20404;-68
2024/01/01 09:23:39;;;;;;;3.60;2.70;;;9.90;99.90;;;;;;4892831;29;20186;-68
2024/01/01 09:26:05;;;;;;;3.50;3.20;;;9.90;99.90;;;;;;4899087;29;20955;-68
2024/01/01 09:28:31;;;;;;;4.00;3.57;;;10.00;99.90;;;;;;4898447;29;20200;-68
2024/01/01 09:30:57;;;;;;;3.77;3.50;;;10.00;99.90;;;;;;4898669;29;20607;-69
2024/01/01 09:33:23;;;;;;;3.57;2.87;;;10.10;99.90;;;;;;4897051;29;20473;-69
2024/01/01 09:35:51;;;;;;;2.37;2.27;;;10.00;99.90;;;;;;4892495;29;20187;-69
2024/01/01 09:38:17;;;;;;;3.33;2.67;;;9.90;99.90;;;;;;4885069;29;20973;-68
2024/01/01 09:40:43;;;;;;;2.80;2.60;;;9.80;99.90;;;;;;4880015;29;20514;-68
2024/01/01 09:43:15;;;;;;;5.60;4.00;;;9.90;99.90;;;;;;4864633;29;20188;-68
2024/01/01 09:45:42;;;;;;;3.10;2.50;;;9.90;99.90;;;;;;4893356;29;20182;-68
2024/01/01 09:48:07;;;;;;;3.83;2.60;;;9.90;99.90;;;;;;4899517;29;20425;-68
2024/01/01 09:50:34;;;;;;;5.43;2.90;;;9.90;99.90;;;;;;4897783;29;20436;-68
2024/01/01 09:53:00;;;;;;;5.20;2.37;;;9.90;99.90;;;;;;4898816;29;20182;-68
2024/01/01 09:55:27;;;;;;;2.60;2.50;;;9.90;99.90;;;;;;4889722;29;20472;-69
2024/01/01 09:57:53;;;;;;;4.77;2.77;;;9.90;99.90;;;;;;4897140;29;20800;-68
2024/01/01 10:00:23;;;;;;;3.90;2.67;;;10.00;99.90;;;;;;4898234;29;20915;-68
2024/01/01 10:02:48;;;;;;;4.17;2.40;;;10.00;99.90;;;;;;4898266;29;20406;-68
2024/01/01 10:05:16;;;;;;;3.53;2.70;;;10.00;99.90;;;;;;4887150;29;20421;-69
2024/01/01 10:07:43;;;;;;;3.10;2.90;;;9.90;99.90;;;;;;4891582;29;20275;-68
2024/01/01 10:10:10;;;;;;;2.97;2.77;;;9.90;99.90;;;;;;4895266;29;20513;-68
2024/01/01 10:12:36;;;;;;;3.00;2.80;;;10.00;99.90;;;;;;4897681;29;21048;-68
2024/01/01 10:15:02;;;;;;;3.40;2.90;;;10.00;99.90;;;;;;4898471;29;20501;-68
2024/01/01 10:17:28;;;;;;;6.23;3.10;;;10.00;99.90;;;;;;4898371;29;20186;-68
2024/01/01 10:20:00;;;;;;;3.10;3.00;;;10.00;99.90;;;;;;4889491;29;20430;-65
2024/01/01 10:22:32;;;;;;;3.40;3.10;;;10.00;99.90;;;;;;4889978;29;20218;-64
2024/01/01 10:25:13;;;;;;;3.13;2.80;;;10.10;99.90;;;;;;4884113;29;20432;-63
2024/01/01 10:27:38;;;;;;;3.53;3.10;;;10.00;99.90;;;;;;4882586;29;20436;-64
2024/01/01 10:30:05;;;;;;;3.20;3.00;;;10.00;99.90;;;;;;4898033;29;20418;-65
2024/01/01 10:32:33;;;;;;;3.10;2.80;;;10.00;99.90;;;;;;4874877;29;20214;-62
2024/01/01 10:35:01;;;;;;;4.60;4.20;;;10.00;99.90;;;;;;4882627;29;20433;-60
2024/01/01 10:37:29;;;;;;;3.47;3.27;;;10.30;99.90;;;;;;4897442;29;20431;-60
2024/01/01 10:39:58;;;;;;;154.50;94.43;;;10.80;99.90;;;;;;4884608;29;20426;-61
2024/01/01 10:42:30;;;;;;;172.70;127.50;;;11.20;99.90;;;;;;4890671;29;20461;-60
2024/01/01 10:44:56;;;;;;;6.30;5.73;;;11.50;99.90;;;;;;4888573;29;20414;-62
2024/01/01 10:47:25;;;;;;;2.80;2.60;;;12.00;99.90;;;;;;4881308;29;20427;-68
2024/01/01 10:49:59;;;;;;;4.60;2.80;;;12.00;99.90;;;;;;4896985;29;20203;-68
2024/01/01 10:52:31;;;;;;;3.80;2.97;;;11.90;99.90;;;;;;4895222;29;20467;-67
2024/01/01 10:55:05;;;;;;;3.30;3.00;;;11.70;99.90;;;;;;4882674;29;20821;-63
2024/01/01 10:57:43;;;;;;;3.40;3.10;;;11.50;99.90;;;;;;4871545;29;20785;-67
2024/01/01 11:00:33;;;;;;;3.73;2.80;;;11.30;99.90;;;;;;4883382;29;20450;-68
2024/01/01 11:03:01;;;;;;;3.50;3.10;;;11.10;99.90;;;;;;4894851;29;20935;-70
2024/01/01 11:05:34;;;;;;;3.03;2.60;;;11.00;99.90;;;;;;4875120;29;20437;-71
2024/01/01 11:08:03;;;;;;;3.73;2.60;;;10.80;99.90;;;;;;4896078;29;20415;-68
2024/01/01 11:10:44;;;;;;;4.70;4.00;;;10.70;99.90;;;;;;4890669;29;20427;-69
2024/01/01 11:13:26;;;;;;;5.67;3.47;;;10.70;99.90;;;;;;4886663;29;20424;-69
2024/01/01 11:15:58;;;;;;;3.63;3.33;;;10.60;99.90;;;;;;4881646;29;20943;-67
2024/01/01 11:18:32;;;;;;;5.03;3.37;;;10.60;99.90;;;;;;4882677;29;20935;-67
2024/01/01 11:21:00;;;;;;;3.90;3.60;;;10.60;99.90;;;;;;4873626;29;20769;-67
2024/01/01 11:23:46;;;;;;;8.17;4.50;;;10.60;99.90;;;;;;4895460;29;20433;-67
2024/01/01 11:26:34;;;;;;;3.60;3.50;;;10.50;99.90;;;;;;4897448;29;20788;-68
2024/01/01 11:29:04;;;;;;;4.20;3.77;;;10.40;99.90;;;;;;4897531;29;20415;-68
2024/01/01 11:31:31;;;;;;;4.67;3.03;;;10.40;99.90;;;;;;4894165;29;20469;-69
2024/01/01 11:34:14;;;;;;;3.83;3.00;;;10.40;99.90;;;;;;4889004;29;20476;-69
2024/01/01 11:36:42;;;;;;;3.80;3.07;;;10.40;99.90;;;;;;4879316;29;20436;-69
2024/01/01 11:39:08;;;;;;;5.57;3.13;;;10.40;99.90;;;;;;4878894;29;20988;-70
2024/01/01 11:41:34;;;;;;;4.87;4.40;;;10.40;99.90;;;;;;4892312;29;20460;-61
2024/01/01 11:44:14;;;;;;;8.30;6.20;;;10.40;99.90;;;;;;4890841;29;20445;-61
2024/01/01 11:46:40;;;;;;;6.90;4.90;;;10.90;99.90;;;;;;4887615;29;20435;-61
2024/01/01 11:49:07;;;;;;;5.93;5.43;;;11.60;99.90;;;;;;4889568;29;20438;-61
2024/01/01 11:51:55;;;;;;;6.67;4.80;;;12.00;99.90;;;;;;4885178;29;20475;-61
2024/01/01 11:54:21;;;;;;;6.50;5.10;;;12.40;99.90;;;;;;4870992;29;20475;-60
2024/01/01 11:56:49;;;;;;;6.87;5.87;;;12.80;99.90;;;;;;4887965;29;20436;-61
2024/01/01 11:59:18;;;;;;;9.80;5.40;;;13.00;99.90;;;;;;4895560;29;20437;-61
2024/01/01 12:01:45;;;;;;;4.53;4.13;;;13.30;99.90;;;;;;4884888;29;20487;-61
2024/01/01 12:04:11;;;;;;;8.30;5.77;;;13.70;99.90;;;;;;4878374;29;20416;-61
2024/01/01 12:06:37;;;;;;;5.30;4.30;;;13.90;99.90;;;;;;4898005;29;20971;-61
2024/01/01 12:09:13;;;;;;;6.57;5.20;;;14.10;99.90;;;;;;4896008;29;20503;-62
2024/01/01 12:11:42;;;;;;;4.67;4.27;;;14.20;99.90;;;;;;4881208;29;20508;-62
2024/01/01 12:14:08;;;;;;;8.73;5.17;;;14.30;99.90;;;;;;4884922;29;20804;-62
2024/01/01 12:16:35;;;;;;;13.03;6.73;;;14.30;99.90;;;;;;4883645;29;20434;-62
2024/01/01 12:19:02;;;;;;;4.90;4.50;;;14.30;99.90;;;;;;4896148;29;20711;-60
2024/01/01 12:21:38;;;;;;;9.03;6.10;;;14.30;99.90;;;;;;4883769;29;20428;-62
2024/01/01 12:24:05;;;;;;;6.73;5.70;;;14.30;99.90;;;;;;4880614;29;20916;-62
2024/01/01 12:26:34;;;;;;;6.70;4.33;;;14.50;99.90;;;;;;4865895;29;20464;-62
2024/01/01 12:29:11;;;;;;;10.97;7.70;;;14.60;99.90;;;;;;4890794;29;20534;-62
2024/01/01 12:31:38;;;;;;;5.33;4.60;;;14.60;99.90;;;;;;4892698;29;20462;-61
2024/01/01 12:34:05;;;;;;;9.50;7.87;;;14.50;99.90;;;;;;4880975;29;20412;-62
2024/01/01 12:36:31;;;;;;;10.80;6.97;;;14.70;99.90;;;;;;4887582;29;20774;-62
2024/01/01 12:38:57;;;;;;;7.97;5.40;;;14.70;99.90;;;;;;4895208;29;20936;-64
2024/01/01 12:41:22;;;;;;;4.57;3.53;;;14.80;99.90;;;;;;4898563;29;20188;-71
2024/01/01 12:43:48;;;;;;;4.40;3.60;;;14.80;99.50;;;;;;4876277;29;20196;-71
2024/01/01 12:46:14;;;;;;;28.33;20.63;;;14.50;97.10;;;;;;4890365;29;20179;-71